createdAt,value
2023-03-01T00:01:17.460Z,14.47
2023-03-01T00:03:47.172Z,15.90
2023-03-01T00:06:15.054Z,17.60
2023-03-01T00:08:43.020Z,16.53
2023-03-01T00:11:14.914Z,16.27
2023-03-01T00:13:44.134Z,14.53
2023-03-01T00:16:14.202Z,16.30
2023-03-01T00:18:42.070Z,11.97
2023-03-01T00:21:11.350Z,14.00
2023-03-01T00:23:40.094Z,13.10
2023-03-01T00:26:10.029Z,13.60
2023-03-01T00:28:39.416Z,12.87
2023-03-01T00:31:09.118Z,18.30
2023-03-01T00:33:37.053Z,12.83
2023-03-01T00:36:05.955Z,14.33
2023-03-01T00:38:38.951Z,15.23
2023-03-01T00:41:10.638Z,14.50
2023-03-01T00:43:38.615Z,16.27
2023-03-01T00:46:08.236Z,15.57
2023-03-01T00:48:36.789Z,19.03
2023-03-01T00:51:08.010Z,15.37
2023-03-01T00:53:36.092Z,13.40
2023-03-01T00:56:06.893Z,16.37
2023-03-01T00:58:35.162Z,13.90
2023-03-01T01:01:08.929Z,16.30
2023-03-01T01:03:36.709Z,18.00
2023-03-01T01:06:10.274Z,15.23
2023-03-01T01:08:38.049Z,19.33
2023-03-01T01:11:07.316Z,15.40
2023-03-01T01:13:37.621Z,14.33
2023-03-01T01:16:06.192Z,18.63
2023-03-01T01:18:34.014Z,14.70
2023-03-01T01:21:06.408Z,20.30
2023-03-01T01:23:34.454Z,17.53
2023-03-01T01:26:07.931Z,14.20
2023-03-01T01:28:37.285Z,16.47
2023-03-01T01:31:05.522Z,20.20
2023-03-01T01:33:33.742Z,16.63
2023-03-01T01:36:01.717Z,13.93
2023-03-01T01:38:29.683Z,19.50
2023-03-01T01:41:00.080Z,18.53
2023-03-01T01:43:32.112Z,16.03
2023-03-01T01:46:03.551Z,18.20
2023-03-01T01:48:42.198Z,17.63
2023-03-01T01:51:14.966Z,17.23
2023-03-01T01:53:44.514Z,17.33
2023-03-01T01:56:16.349Z,19.00
2023-03-01T01:58:46.687Z,17.30
2023-03-01T02:01:14.396Z,17.53
2023-03-01T02:03:46.103Z,15.70
2023-03-01T02:06:19.141Z,15.07
2023-03-01T02:08:49.348Z,18.53
2023-03-01T02:11:17.454Z,13.23
2023-03-01T02:13:49.386Z,15.20
2023-03-01T02:16:19.392Z,16.83
2023-03-01T02:18:49.966Z,17.43
2023-03-01T02:21:35.134Z,15.87
2023-03-01T02:24:17.762Z,17.90
2023-03-01T02:26:52.068Z,17.10
2023-03-01T02:29:21.966Z,18.73
2023-03-01T02:31:49.332Z,18.10
2023-03-01T02:34:19.661Z,20.33
2023-03-01T02:36:50.722Z,17.53
2023-03-01T02:39:22.865Z,17.37
2023-03-01T02:41:54.670Z,18.00
2023-03-01T02:44:24.868Z,18.10
2023-03-01T02:46:55.108Z,18.67
2023-03-01T02:49:28.928Z,18.57
2023-03-01T02:52:25.974Z,17.57
2023-03-01T02:54:59.991Z,16.63
2023-03-01T02:57:30.131Z,17.30
2023-03-01T03:00:07.857Z,15.73
2023-03-01T03:02:38.085Z,18.77
2023-03-01T03:05:21.884Z,16.80
2023-03-01T03:07:53.685Z,17.77
2023-03-01T03:10:24.450Z,17.23
2023-03-01T03:12:53.802Z,22.20
2023-03-01T03:15:24.572Z,18.30
2023-03-01T03:17:54.056Z,18.73
2023-03-01T03:20:25.352Z,19.07
2023-03-01T03:22:55.685Z,18.97
2023-03-01T03:25:24.130Z,19.67
2023-03-01T03:27:57.423Z,18.33
2023-03-01T03:30:28.402Z,19.07
2023-03-01T03:32:59.823Z,19.70
2023-03-01T03:35:33.456Z,17.87
2023-03-01T03:38:07.655Z,21.73
2023-03-01T03:40:37.300Z,19.43
2023-03-01T03:43:06.889Z,21.13
2023-03-01T03:45:36.688Z,18.17
2023-03-01T03:48:07.096Z,21.00
2023-03-01T03:50:35.291Z,17.47
2023-03-01T03:53:03.798Z,17.67
2023-03-01T03:55:31.750Z,19.80
2023-03-01T03:58:03.272Z,22.87
2023-03-01T04:00:31.231Z,22.60
2023-03-01T04:03:00.394Z,18.60
2023-03-01T04:05:29.314Z,19.87
2023-03-01T04:08:08.108Z,20.93
2023-03-01T04:10:38.555Z,20.80
2023-03-01T04:13:07.015Z,20.93
2023-03-01T04:15:35.192Z,17.23
2023-03-01T04:18:07.656Z,21.17
2023-03-01T04:20:37.647Z,20.20
2023-03-01T04:23:14.140Z,21.67
2023-03-01T04:25:43.462Z,19.27
2023-03-01T04:28:11.874Z,17.47
2023-03-01T04:30:42.414Z,21.00
2023-03-01T04:33:13.115Z,19.53
2023-03-01T04:35:42.011Z,17.73
2023-03-01T04:38:10.665Z,18.83
2023-03-01T04:40:38.841Z,21.47
2023-03-01T04:43:06.838Z,18.13
2023-03-01T04:45:36.471Z,19.90
2023-03-01T04:48:05.378Z,19.90
2023-03-01T04:50:35.056Z,20.70
2023-03-01T04:53:02.953Z,20.07
2023-03-01T04:55:33.337Z,18.43
2023-03-01T04:58:01.068Z,22.83
2023-03-01T05:00:28.955Z,22.77
2023-03-01T05:03:01.207Z,20.47
2023-03-01T05:05:31.274Z,22.33
2023-03-01T05:08:02.705Z,20.07
2023-03-01T05:10:32.772Z,20.63
2023-03-01T05:13:01.740Z,19.90
2023-03-01T05:15:31.697Z,22.17
2023-03-01T05:18:01.450Z,18.57
2023-03-01T05:20:29.721Z,19.73
2023-03-01T05:22:59.584Z,20.53
2023-03-01T05:25:33.892Z,20.53
2023-03-01T05:28:05.206Z,18.37
2023-03-01T05:30:33.748Z,22.70
2023-03-01T05:33:02.394Z,21.70
2023-03-01T05:35:33.611Z,22.90
2023-03-01T05:38:01.602Z,21.00
2023-03-01T05:40:30.737Z,20.67
2023-03-01T05:42:58.970Z,20.93
2023-03-01T05:45:30.109Z,21.63
2023-03-01T05:47:57.871Z,21.10
2023-03-01T05:50:28.201Z,22.47
2023-03-01T05:53:00.225Z,22.53
2023-03-01T05:55:29.261Z,22.60
2023-03-01T05:58:00.595Z,20.27
2023-03-01T06:00:29.538Z,21.93
2023-03-01T06:02:58.609Z,18.93
2023-03-01T06:05:26.962Z,22.47
2023-03-01T06:08:00.275Z,20.37
2023-03-01T06:10:28.557Z,21.93
2023-03-01T06:12:56.336Z,22.00
2023-03-01T06:15:26.939Z,20.37
2023-03-01T06:17:59.676Z,17.50
2023-03-01T06:20:29.495Z,20.17
2023-03-01T06:22:58.165Z,20.87
2023-03-01T06:25:27.769Z,19.23
2023-03-01T06:27:55.524Z,21.97
2023-03-01T06:30:26.714Z,22.43
2023-03-01T06:33:01.646Z,20.70
2023-03-01T06:35:31.529Z,26.43
2023-03-01T06:38:03.511Z,18.67
2023-03-01T06:40:32.280Z,20.80
2023-03-01T06:43:00.397Z,19.67
2023-03-01T06:45:29.580Z,21.70
2023-03-01T06:48:04.842Z,20.23
2023-03-01T06:50:32.944Z,21.57
2023-03-01T06:53:00.855Z,23.60
2023-03-01T06:55:31.255Z,20.47
2023-03-01T06:57:59.865Z,24.50
2023-03-01T07:00:29.523Z,21.30
2023-03-01T07:03:00.962Z,21.30
2023-03-01T07:05:28.709Z,21.97
2023-03-01T07:07:57.294Z,21.77
2023-03-01T07:10:25.262Z,21.47
2023-03-01T07:12:56.744Z,23.77
2023-03-01T07:15:24.599Z,22.40
2023-03-01T07:17:53.814Z,21.60
2023-03-01T07:20:25.447Z,21.53
2023-03-01T07:22:53.336Z,24.20
2023-03-01T07:25:21.208Z,22.77
2023-03-01T07:27:51.874Z,22.30
2023-03-01T07:30:20.251Z,20.07
2023-03-01T07:32:48.421Z,24.77
2023-03-01T07:35:17.821Z,23.57
2023-03-01T07:37:45.859Z,22.60
2023-03-01T07:40:14.653Z,23.03
2023-03-01T07:42:42.517Z,20.70
2023-03-01T07:45:14.399Z,20.80
2023-03-01T07:47:42.172Z,25.10
2023-03-01T07:50:12.771Z,22.00
2023-03-01T07:52:41.880Z,20.90
2023-03-01T07:55:10.415Z,22.27
2023-03-01T07:57:38.287Z,23.07
2023-03-01T08:00:07.691Z,22.40
2023-03-01T08:02:41.409Z,22.67
2023-03-01T08:05:09.881Z,21.53
2023-03-01T08:07:37.762Z,21.10
2023-03-01T08:10:07.876Z,19.07
2023-03-01T08:12:35.645Z,21.17
2023-03-01T08:15:03.391Z,22.37
2023-03-01T08:17:31.152Z,21.67
2023-03-01T08:19:58.918Z,19.20
2023-03-01T08:22:26.779Z,20.40
2023-03-01T08:24:56.696Z,18.03
2023-03-01T08:27:27.973Z,21.73
2023-03-01T08:29:55.782Z,19.13
2023-03-01T08:32:23.632Z,19.70
2023-03-01T08:34:51.560Z,20.73
2023-03-01T08:37:19.325Z,17.57
2023-03-01T08:39:47.130Z,20.20
2023-03-01T08:42:14.995Z,18.57
2023-03-01T08:44:45.998Z,22.50
2023-03-01T08:47:14.707Z,21.43
2023-03-01T08:49:42.434Z,19.60
2023-03-01T08:52:10.303Z,19.33
2023-03-01T08:54:38.497Z,18.67
2023-03-01T08:57:06.232Z,20.17
2023-03-01T08:59:38.176Z,17.97
2023-03-01T09:02:08.533Z,23.33
2023-03-01T09:04:36.382Z,24.03
2023-03-01T09:07:04.262Z,19.43
2023-03-01T09:09:32.374Z,19.33
2023-03-01T09:12:00.358Z,20.67
2023-03-01T09:14:28.341Z,18.40
2023-03-01T09:16:57.088Z,20.63
2023-03-01T09:19:27.495Z,20.53
2023-03-01T09:21:56.916Z,20.07
2023-03-01T09:24:26.433Z,20.03
2023-03-01T09:26:58.353Z,19.50
2023-03-01T09:29:26.894Z,22.53
2023-03-01T09:31:57.122Z,19.37
2023-03-01T09:34:26.273Z,19.67
2023-03-01T09:36:54.163Z,18.80
2023-03-01T09:39:24.572Z,19.83
2023-03-01T09:42:00.757Z,19.27
2023-03-01T09:44:36.271Z,22.23
2023-03-01T09:47:04.864Z,18.43
2023-03-01T09:49:37.164Z,22.03
2023-03-01T09:52:15.344Z,19.33
2023-03-01T09:54:43.207Z,24.73
2023-03-01T09:57:21.151Z,20.93
2023-03-01T10:00:22.700Z,19.47
2023-03-01T10:03:00.498Z,19.90
2023-03-01T10:05:43.457Z,19.87
2023-03-01T10:08:30.482Z,21.43
2023-03-01T10:10:59.452Z,21.30
2023-03-01T10:13:33.379Z,21.20
2023-03-01T10:16:06.122Z,19.07
2023-03-01T10:18:37.798Z,21.53
2023-03-01T10:21:16.557Z,19.27
2023-03-01T10:23:46.698Z,19.63
2023-03-01T10:26:27.033Z,19.87
2023-03-01T10:29:03.720Z,20.73
2023-03-01T10:31:40.314Z,19.90
2023-03-01T10:34:14.497Z,19.27
2023-03-01T10:36:46.160Z,17.70
2023-03-01T10:39:17.668Z,19.67
2023-03-01T10:42:00.749Z,16.13
2023-03-01T10:44:41.061Z,15.23
2023-03-01T10:47:15.850Z,19.37
2023-03-01T10:49:54.407Z,15.60
2023-03-01T10:52:25.935Z,16.37
2023-03-01T10:54:56.712Z,16.40
2023-03-01T10:57:34.167Z,17.83
2023-03-01T11:00:20.151Z,16.70
2023-03-01T11:02:51.312Z,16.60
2023-03-01T11:05:25.836Z,18.47
2023-03-01T11:07:57.544Z,17.40
2023-03-01T11:10:27.359Z,15.40
2023-03-01T11:13:09.110Z,16.77
2023-03-01T11:15:37.933Z,18.47
2023-03-01T11:18:22.634Z,16.10
2023-03-01T11:20:55.777Z,15.20
2023-03-01T11:23:26.442Z,15.30
2023-03-01T11:25:58.514Z,17.17
2023-03-01T11:28:29.583Z,16.50
2023-03-01T11:31:08.554Z,18.03
2023-03-01T11:33:43.033Z,15.40
2023-03-01T11:36:18.663Z,19.60
2023-03-01T11:38:49.001Z,16.20
2023-03-01T11:41:22.833Z,17.27
2023-03-01T11:43:55.805Z,15.60
2023-03-01T11:46:50.534Z,15.63
2023-03-01T11:49:51.607Z,16.10
2023-03-01T11:52:28.033Z,15.67
2023-03-01T11:55:18.369Z,15.63
2023-03-01T11:58:10.356Z,18.43
2023-03-01T12:01:02.662Z,17.13
2023-03-01T12:03:50.129Z,16.87
2023-03-01T12:06:30.951Z,14.40
2023-03-01T12:09:11.589Z,16.83
2023-03-01T12:11:52.286Z,16.90
2023-03-01T12:14:52.538Z,16.37
2023-03-01T12:17:43.859Z,14.97
2023-03-01T12:20:22.508Z,15.03
2023-03-01T12:23:20.693Z,15.20
2023-03-01T12:25:57.512Z,16.43
2023-03-01T12:28:42.553Z,16.27
2023-03-01T12:31:34.777Z,16.40
2023-03-01T12:34:13.304Z,14.87
2023-03-01T12:37:02.672Z,15.27
2023-03-01T12:39:45.613Z,13.97
2023-03-01T12:42:23.748Z,16.43
2023-03-01T12:45:09.569Z,16.93
2023-03-01T12:47:59.757Z,14.43
2023-03-01T12:50:38.609Z,14.13
2023-03-01T12:53:06.372Z,13.80
2023-03-01T12:55:37.997Z,16.23
2023-03-01T12:58:22.014Z,16.27
2023-03-01T13:01:02.720Z,15.43
2023-03-01T13:03:38.520Z,15.47
2023-03-01T13:06:13.213Z,15.80
2023-03-01T13:08:46.180Z,14.97
2023-03-01T13:11:19.875Z,17.97
2023-03-01T13:13:49.788Z,16.07
2023-03-01T13:16:45.984Z,18.10
2023-03-01T13:19:17.387Z,17.50
2023-03-01T13:21:46.132Z,16.67
2023-03-01T13:24:30.359Z,18.83
2023-03-01T13:27:25.827Z,16.17
2023-03-01T13:29:54.932Z,17.03
2023-03-01T13:32:34.599Z,17.07
2023-03-01T13:35:45.292Z,16.37
2023-03-01T13:38:46.924Z,18.73
2023-03-01T13:41:16.314Z,15.63
2023-03-01T13:43:45.343Z,16.87
2023-03-01T13:46:18.879Z,16.33
2023-03-01T13:48:52.607Z,15.73
2023-03-01T13:51:25.929Z,17.17
2023-03-01T13:53:57.172Z,18.37
2023-03-01T13:56:29.300Z,17.30
2023-03-01T13:59:01.934Z,18.00
2023-03-01T14:01:31.721Z,18.60
2023-03-01T14:04:02.529Z,17.63
2023-03-01T14:06:32.872Z,17.67
2023-03-01T14:09:07.140Z,17.67
2023-03-01T14:11:58.670Z,16.83
2023-03-01T14:14:39.993Z,15.83
2023-03-01T14:17:43.261Z,17.00
2023-03-01T14:20:19.048Z,18.23
2023-03-01T14:22:48.262Z,19.17
2023-03-01T14:25:24.849Z,17.83
2023-03-01T14:28:06.099Z,19.10
2023-03-01T14:30:38.638Z,18.40
2023-03-01T14:33:19.607Z,19.17
2023-03-01T14:35:57.516Z,19.70
2023-03-01T14:38:31.391Z,14.07
2023-03-01T14:41:06.739Z,19.40
2023-03-01T14:43:39.716Z,17.73
2023-03-01T14:46:07.703Z,20.10
2023-03-01T14:48:35.885Z,15.67
2023-03-01T14:51:07.638Z,18.67
2023-03-01T14:53:45.874Z,18.97
2023-03-01T14:56:19.798Z,17.03
2023-03-01T14:58:49.211Z,16.93
2023-03-01T15:01:19.194Z,19.70
2023-03-01T15:03:49.144Z,19.87
2023-03-01T15:06:22.087Z,15.47
2023-03-01T15:08:52.929Z,16.03
2023-03-01T15:11:25.628Z,17.93
2023-03-01T15:13:55.098Z,18.13
2023-03-01T15:16:26.614Z,18.43
2023-03-01T15:18:57.205Z,19.23
2023-03-01T15:21:29.917Z,17.80
2023-03-01T15:24:03.536Z,19.73
2023-03-01T15:26:34.070Z,16.70
2023-03-01T15:29:05.240Z,16.93
2023-03-01T15:31:36.854Z,15.30
2023-03-01T15:34:13.566Z,16.87
2023-03-01T15:36:46.341Z,16.30
2023-03-01T15:39:38.479Z,17.83
2023-03-01T15:42:08.695Z,22.40
2023-03-01T15:44:43.666Z,16.67
2023-03-01T15:47:32.023Z,17.53
2023-03-01T15:50:02.512Z,18.17
2023-03-01T15:52:40.814Z,16.77
2023-03-01T15:55:19.122Z,19.57
2023-03-01T15:57:47.706Z,15.40
2023-03-01T16:00:20.041Z,16.57
2023-03-01T16:02:51.962Z,19.00
2023-03-01T16:05:24.922Z,17.73
2023-03-01T16:07:57.532Z,18.57
2023-03-01T16:10:27.990Z,17.57
2023-03-01T16:12:58.294Z,16.20
2023-03-01T16:15:32.640Z,19.40
2023-03-01T16:18:02.838Z,17.33
2023-03-01T16:20:33.792Z,17.97
2023-03-01T16:23:04.620Z,19.10
2023-03-01T16:25:36.397Z,19.20
2023-03-01T16:28:10.480Z,18.00
2023-03-01T16:30:40.821Z,18.43
2023-03-01T16:33:25.236Z,17.20
2023-03-01T16:36:01.479Z,16.80
2023-03-01T16:38:34.198Z,16.73
2023-03-01T16:41:04.155Z,16.47
2023-03-01T16:43:34.429Z,17.90
2023-03-01T16:46:05.387Z,15.80
2023-03-01T16:48:35.236Z,19.70
2023-03-01T16:51:04.985Z,17.80
2023-03-01T16:53:37.045Z,15.97
2023-03-01T16:56:08.645Z,16.83
2023-03-01T16:58:37.179Z,17.90
2023-03-01T17:01:09.573Z,16.80
2023-03-01T17:03:37.550Z,18.60
2023-03-01T17:06:06.724Z,18.43
2023-03-01T17:08:36.435Z,17.20
2023-03-01T17:11:06.225Z,18.10
2023-03-01T17:13:35.290Z,18.60
2023-03-01T17:16:07.211Z,18.63
2023-03-01T17:18:35.820Z,18.80
2023-03-01T17:21:05.573Z,19.43
2023-03-01T17:23:37.409Z,16.53
2023-03-01T17:26:08.649Z,16.83
2023-03-01T17:28:38.772Z,15.83
2023-03-01T17:31:08.465Z,15.90
2023-03-01T17:33:36.879Z,20.00
2023-03-01T17:36:05.236Z,17.47
2023-03-01T17:38:33.189Z,18.63
2023-03-01T17:41:02.646Z,19.10
2023-03-01T17:43:32.245Z,16.60
2023-03-01T17:46:03.245Z,17.60
2023-03-01T17:48:31.572Z,16.53
2023-03-01T17:50:59.465Z,17.43
2023-03-01T17:53:27.606Z,20.77
2023-03-01T17:56:03.870Z,18.80
2023-03-01T17:58:32.271Z,22.03
2023-03-01T18:01:10.354Z,18.47
2023-03-01T18:03:40.240Z,17.80
2023-03-01T18:06:14.704Z,19.90
2023-03-01T18:08:45.382Z,21.07
2023-03-01T18:11:17.039Z,18.97
2023-03-01T18:13:45.538Z,19.60
2023-03-01T18:16:15.028Z,18.07
2023-03-01T18:18:45.455Z,20.90
2023-03-01T18:21:15.800Z,15.93
2023-03-01T18:23:43.822Z,15.70
2023-03-01T18:26:13.089Z,18.30
2023-03-01T18:28:42.564Z,21.63
2023-03-01T18:31:11.825Z,18.57
2023-03-01T18:33:40.281Z,22.17
2023-03-01T18:36:19.155Z,20.20
2023-03-01T18:38:47.940Z,19.47
2023-03-01T18:41:15.850Z,20.17
2023-03-01T18:43:47.347Z,19.03
2023-03-01T18:46:15.354Z,20.47
2023-03-01T18:48:45.569Z,16.43
2023-03-01T18:51:15.695Z,18.20
2023-03-01T18:53:43.646Z,17.13
2023-03-01T18:56:12.039Z,14.80
2023-03-01T18:58:43.600Z,17.73
2023-03-01T19:01:16.946Z,18.93
2023-03-01T19:03:45.243Z,15.07
2023-03-01T19:06:13.665Z,15.60
2023-03-01T19:08:43.150Z,20.20
2023-03-01T19:11:12.555Z,21.17
2023-03-01T19:13:41.494Z,21.67
2023-03-01T19:16:12.292Z,20.80
2023-03-01T19:18:43.880Z,18.20
2023-03-01T19:21:12.696Z,19.93
2023-03-01T19:23:40.592Z,19.90
2023-03-01T19:26:11.235Z,19.30
2023-03-01T19:28:39.785Z,19.90
2023-03-01T19:31:12.680Z,24.20
2023-03-01T19:33:42.440Z,19.80
2023-03-01T19:36:14.133Z,20.50
2023-03-01T19:38:43.270Z,18.37
2023-03-01T19:41:18.595Z,18.27
2023-03-01T19:43:47.283Z,18.30
2023-03-01T19:46:16.265Z,21.83
2023-03-01T19:48:45.694Z,23.20
2023-03-01T19:51:13.951Z,22.93
2023-03-01T19:53:42.280Z,20.67
2023-03-01T19:56:10.533Z,19.67
2023-03-01T19:58:39.976Z,19.40
2023-03-01T20:01:15.972Z,22.23
2023-03-01T20:03:45.770Z,22.17
2023-03-01T20:06:15.507Z,21.27
2023-03-01T20:08:44.574Z,21.53
2023-03-01T20:11:14.372Z,21.77
2023-03-01T20:13:42.519Z,19.90
2023-03-01T20:16:10.556Z,19.60
2023-03-01T20:18:38.617Z,19.40
2023-03-01T20:21:21.503Z,20.30
2023-03-01T20:23:51.483Z,21.67
2023-03-01T20:26:20.407Z,21.50
2023-03-01T20:28:49.468Z,19.93
2023-03-01T20:31:19.856Z,21.80
2023-03-01T20:33:47.910Z,21.33
2023-03-01T20:36:19.354Z,22.00
2023-03-01T20:38:47.169Z,21.70
2023-03-01T20:41:15.393Z,21.30
2023-03-01T20:43:43.710Z,19.70
2023-03-01T20:46:13.419Z,21.33
2023-03-01T20:48:42.926Z,21.10
2023-03-01T20:51:12.313Z,23.87
2023-03-01T20:53:42.042Z,22.20
2023-03-01T20:56:12.253Z,20.90
2023-03-01T20:58:40.798Z,21.07
2023-03-01T21:01:10.276Z,19.70
2023-03-01T21:03:38.444Z,19.97
2023-03-01T21:06:07.514Z,18.70
2023-03-01T21:08:36.139Z,22.13
2023-03-01T21:11:08.423Z,23.33
2023-03-01T21:13:37.010Z,22.00
2023-03-01T21:16:10.077Z,19.77
2023-03-01T21:18:37.874Z,21.37
2023-03-01T21:21:07.839Z,18.83
2023-03-01T21:23:38.190Z,21.30
2023-03-01T21:26:09.211Z,19.20
2023-03-01T21:28:37.950Z,19.27
2023-03-01T21:31:07.394Z,21.80
2023-03-01T21:33:36.192Z,20.60
2023-03-01T21:36:08.380Z,20.80
2023-03-01T21:38:38.847Z,20.83
2023-03-01T21:41:10.065Z,26.67
2023-03-01T21:43:39.673Z,22.77
2023-03-01T21:46:10.537Z,25.83
2023-03-01T21:48:40.012Z,25.60
2023-03-01T21:51:09.454Z,21.87
2023-03-01T21:53:38.037Z,21.07
2023-03-01T21:56:09.515Z,21.10
2023-03-01T21:58:37.505Z,21.27
2023-03-01T22:01:09.314Z,23.03
2023-03-01T22:03:45.435Z,23.53
2023-03-01T22:06:19.200Z,25.33
2023-03-01T22:08:48.631Z,21.53
2023-03-01T22:11:19.071Z,21.50
2023-03-01T22:13:49.367Z,24.07
2023-03-01T22:16:17.897Z,24.10
2023-03-01T22:18:46.102Z,21.20
2023-03-01T22:21:14.082Z,23.63
2023-03-01T22:23:42.499Z,25.13
2023-03-01T22:26:21.362Z,23.60
2023-03-01T22:28:50.852Z,21.90
2023-03-01T22:31:18.849Z,25.00
2023-03-01T22:33:46.830Z,22.90
2023-03-01T22:36:14.610Z,21.93
2023-03-01T22:38:42.759Z,22.20
2023-03-01T22:41:10.727Z,23.43
2023-03-01T22:43:38.785Z,24.00
2023-03-01T22:46:17.565Z,21.80
2023-03-01T22:48:46.375Z,21.17
2023-03-01T22:51:17.672Z,21.47
2023-03-01T22:53:45.761Z,22.70
2023-03-01T22:56:18.157Z,25.43
2023-03-01T22:58:46.390Z,26.03
2023-03-01T23:01:20.434Z,22.60
2023-03-01T23:03:48.852Z,24.17
2023-03-01T23:06:18.865Z,23.50
2023-03-01T23:08:50.794Z,22.73
2023-03-01T23:11:20.186Z,21.43
2023-03-01T23:13:48.704Z,20.33
2023-03-01T23:16:18.335Z,25.77
2023-03-01T23:18:48.431Z,22.57
2023-03-01T23:21:18.851Z,21.97
2023-03-01T23:23:47.541Z,24.20
2023-03-01T23:26:16.246Z,25.50
2023-03-01T23:28:44.256Z,24.57
2023-03-01T23:31:14.735Z,24.57
2023-03-01T23:33:45.259Z,21.60
2023-03-01T23:36:18.057Z,25.00
2023-03-01T23:38:46.086Z,23.83
2023-03-01T23:41:14.651Z,22.47
2023-03-01T23:43:45.327Z,24.20
2023-03-01T23:46:14.500Z,27.03
2023-03-01T23:48:43.878Z,23.03
2023-03-01T23:51:12.735Z,24.67
2023-03-01T23:53:54.831Z,24.50
2023-03-01T23:56:26.098Z,23.57
2023-03-01T23:58:54.957Z,25.43
